Belden, New York
Current Conditions -  °F | °C
As of 3:53 AM on Saturday 22 Nov 2014 (Local Time) from KBGM Reporting Station
Scattered Clouds Scattered Clouds  
Wind Chill:   Ceiling: Unl
Heat Index: 18°   Visibility: 10mi
Dew Point:   Wind: 8mph
Humidity: 68%   Direction: 210°SSW
Pressure: 30.31"   Gusts: NA
Location:  42.1976°N, 75.6682°W
Report Text: KBGM 220853Z AUTO 21007KT 10SM SCT120 M08/M13 A3031 RMK AO2 SLP292 T10781128 58012
Loading
Personal Weather Stations






























Interactive Weather Map New forecast layout! Learn more

10-Day Weather Forecast

Advertisements
Track Severe Weather on mobile